createdAt,value
2022-10-23T00:03:46.915Z,101370.09
2022-10-23T00:09:13.578Z,101371.81
2022-10-23T00:14:36.644Z,101358.78
2022-10-23T00:19:59.835Z,101371.06
2022-10-23T00:25:24.324Z,101369.38
2022-10-23T00:30:47.408Z,101366.72
2022-10-23T00:36:13.751Z,101361.25
2022-10-23T00:41:40.886Z,101357.78
2022-10-23T00:47:04.004Z,101346.53
2022-10-23T00:52:27.110Z,101351.81
2022-10-23T00:57:52.489Z,101356.31
2022-10-23T01:03:17.364Z,101346.66
2022-10-23T01:08:46.158Z,101305.09
2022-10-23T01:14:17.686Z,101343.56
2022-10-23T01:19:49.854Z,101334.88
2022-10-23T01:25:23.030Z,101321.19
2022-10-23T01:30:48.127Z,101303.91
2022-10-23T01:36:13.911Z,101304.84
2022-10-23T01:41:42.307Z,101313.41
2022-10-23T01:47:08.801Z,101307.44
2022-10-23T01:52:44.013Z,101300.66
2022-10-23T01:58:08.502Z,101305.25
2022-10-23T02:03:38.697Z,101290.56
2022-10-23T02:09:01.849Z,101292.94
2022-10-23T02:14:32.283Z,101276.34
2022-10-23T02:20:01.568Z,101280.53
2022-10-23T02:25:30.519Z,101278.78
2022-10-23T02:30:54.181Z,101274.22
2022-10-23T02:36:20.013Z,101260.44
2022-10-23T02:41:46.051Z,101262.13
2022-10-23T02:47:17.582Z,101261.41
2022-10-23T02:52:45.563Z,101258.78
2022-10-23T02:58:11.935Z,101241.19
2022-10-23T03:03:42.393Z,101240.22
2022-10-23T03:09:10.432Z,101241.19
2022-10-23T03:14:35.285Z,101243.03
2022-10-23T03:19:59.365Z,101236.94
2022-10-23T03:25:23.788Z,101222.72
2022-10-23T03:30:47.239Z,101216.66
2022-10-23T03:36:11.142Z,101210.28
2022-10-23T03:41:35.645Z,101204.31
2022-10-23T03:46:59.109Z,101198.44
2022-10-23T03:57:52.399Z,101197.81
2022-10-23T04:03:16.505Z,101196.13
2022-10-23T04:08:39.783Z,101182.25
2022-10-23T04:14:12.577Z,101168.31
2022-10-23T04:19:35.670Z,101152.72
2022-10-23T04:24:58.758Z,101152.88
2022-10-23T04:30:23.317Z,101145.84
2022-10-23T04:35:46.576Z,101131.47
2022-10-23T04:41:09.819Z,101122.78
2022-10-23T04:46:34.461Z,101127.03
2022-10-23T04:51:57.581Z,101115.69
2022-10-23T04:57:39.463Z,101108.03
2022-10-23T05:03:06.991Z,101106.22
2022-10-23T05:08:37.139Z,101099.41
2022-10-23T05:14:25.296Z,101094.16
2022-10-23T05:19:52.436Z,101087.94
2022-10-23T05:25:17.213Z,101063.31
2022-10-23T05:30:46.211Z,101089.94
2022-10-23T05:36:12.836Z,101086.22
2022-10-23T05:41:36.139Z,101088.56
2022-10-23T05:46:59.615Z,101077.88
2022-10-23T05:52:43.686Z,101081.31
2022-10-23T05:58:24.579Z,101075.84
2022-10-23T06:04:16.847Z,101069.34
2022-10-23T06:09:54.347Z,101066.66
2022-10-23T06:15:17.719Z,101064.81
2022-10-23T06:20:56.839Z,101058.78
2022-10-23T06:26:23.734Z,101062.94
2022-10-23T06:32:05.877Z,101052.78
2022-10-23T06:37:29.537Z,101053.31
2022-10-23T06:43:03.179Z,101052.25
2022-10-23T06:48:46.772Z,101045.00
2022-10-23T06:54:16.995Z,101043.78
2022-10-23T06:59:56.294Z,101037.66
2022-10-23T07:05:20.724Z,101027.03
2022-10-23T07:10:44.396Z,101027.97
2022-10-23T07:16:14.011Z,101027.03
2022-10-23T07:21:37.433Z,101040.78
2022-10-23T07:27:26.802Z,101028.47
2022-10-23T07:32:58.332Z,101024.56
2022-10-23T07:38:27.946Z,101013.97
2022-10-23T07:43:51.647Z,101000.16
2022-10-23T07:49:16.483Z,101000.31
2022-10-23T07:54:40.017Z,100992.56
2022-10-23T08:00:10.350Z,101001.09
2022-10-23T08:05:37.989Z,100991.44
2022-10-23T08:11:01.626Z,100978.84
2022-10-23T08:16:30.412Z,100980.22
2022-10-23T08:22:00.782Z,100974.53
2022-10-23T08:27:24.037Z,100973.47
2022-10-23T08:32:47.215Z,100957.63
2022-10-23T08:38:12.898Z,100955.50
2022-10-23T08:43:43.298Z,100955.25
2022-10-23T08:49:44.405Z,100950.47
2022-10-23T08:55:17.103Z,100938.66
2022-10-23T09:00:40.213Z,100930.03
2022-10-23T09:06:10.613Z,100924.97
2022-10-23T09:11:39.208Z,100916.94
2022-10-23T09:17:10.697Z,100904.59
2022-10-23T09:22:33.890Z,100892.47
2022-10-23T09:28:01.451Z,100861.78
2022-10-23T09:33:28.137Z,100876.16
2022-10-23T09:38:53.905Z,100875.13
2022-10-23T09:44:20.883Z,100860.81
2022-10-23T09:49:49.632Z,100860.69
2022-10-23T09:55:21.022Z,100868.75
2022-10-23T10:00:52.235Z,100861.69
2022-10-23T10:06:33.575Z,100863.31
2022-10-23T10:11:59.236Z,100857.78
2022-10-23T10:17:36.511Z,100847.75
2022-10-23T10:23:05.388Z,100816.22
2022-10-23T10:28:33.121Z,100826.16
2022-10-23T10:34:08.125Z,100813.75
2022-10-23T10:39:40.182Z,100804.81
2022-10-23T10:45:15.753Z,100815.28
2022-10-23T10:50:45.098Z,100818.91
2022-10-23T10:56:27.148Z,100801.44
2022-10-23T11:01:54.743Z,100785.53
2022-10-23T11:07:23.303Z,100768.22
2022-10-23T11:12:47.484Z,100753.53
2022-10-23T11:18:16.327Z,100746.34
2022-10-23T11:24:26.808Z,100703.84
2022-10-23T11:30:14.919Z,100703.94
2022-10-23T11:35:45.415Z,100687.41
2022-10-23T11:41:22.280Z,100665.34
2022-10-23T11:47:03.586Z,100643.22
2022-10-23T11:52:26.750Z,100640.06
2022-10-23T11:58:21.254Z,100623.72
2022-10-23T12:03:54.220Z,100626.00
2022-10-23T12:09:37.417Z,100625.13
2022-10-23T12:15:20.010Z,100608.78
2022-10-23T12:20:50.491Z,100590.34
2022-10-23T12:26:39.688Z,100574.13
2022-10-23T12:32:07.726Z,100575.66
2022-10-23T12:37:54.607Z,100563.75
2022-10-23T12:43:25.075Z,100558.25
2022-10-23T12:48:50.407Z,100552.59
2022-10-23T12:54:19.995Z,100516.16
2022-10-23T12:59:45.951Z,100510.56
2022-10-23T13:05:13.246Z,100511.50
2022-10-23T13:10:37.926Z,100508.50
2022-10-23T13:16:15.069Z,100503.06
2022-10-23T13:21:38.247Z,100479.59
2022-10-23T13:27:02.672Z,100469.50
2022-10-23T13:32:27.755Z,100451.91
2022-10-23T13:37:51.632Z,100437.78
2022-10-23T13:43:18.909Z,100420.03
2022-10-23T13:48:42.056Z,100419.81
2022-10-23T13:54:05.437Z,100415.69
2022-10-23T13:59:29.889Z,100409.97
2022-10-23T14:04:53.584Z,100399.38
2022-10-23T14:10:16.687Z,100401.75
2022-10-23T14:15:41.112Z,100393.75
2022-10-23T14:21:05.450Z,100378.84
2022-10-23T14:26:30.303Z,100380.72
2022-10-23T14:31:55.072Z,100381.31
2022-10-23T14:37:19.488Z,100379.69
2022-10-23T14:42:42.608Z,100387.91
2022-10-23T14:48:07.335Z,100388.94
2022-10-23T14:53:30.433Z,100378.47
2022-10-23T14:58:53.505Z,100357.88
2022-10-23T15:04:18.013Z,100356.94
2022-10-23T15:09:41.047Z,100345.53
2022-10-23T15:15:07.535Z,100335.41
2022-10-23T15:20:32.092Z,100325.03
2022-10-23T15:25:58.966Z,100318.47
2022-10-23T15:31:41.906Z,100319.75
2022-10-23T15:37:06.462Z,100312.78
2022-10-23T15:42:29.613Z,100301.09
2022-10-23T15:47:52.727Z,100291.84
2022-10-23T15:53:17.152Z,100278.84
2022-10-23T15:58:40.350Z,100272.41
2022-10-23T16:04:03.372Z,100284.56
2022-10-23T16:09:27.820Z,100280.44
2022-10-23T16:14:51.605Z,100261.31
2022-10-23T16:20:14.779Z,100260.56
2022-10-23T16:25:39.498Z,100248.50
2022-10-23T16:31:03.320Z,100259.16
2022-10-23T16:36:26.580Z,100253.78
2022-10-23T16:42:03.213Z,100235.38
2022-10-23T16:47:52.386Z,100227.38
2022-10-23T16:53:15.473Z,100239.13
2022-10-23T16:58:41.830Z,100223.94
2022-10-23T17:04:07.118Z,100231.00
2022-10-23T17:09:31.309Z,100201.28
2022-10-23T17:14:55.718Z,100201.00
2022-10-23T17:20:18.759Z,100211.88
2022-10-23T17:25:42.058Z,100205.81
2022-10-23T17:31:12.294Z,100211.28
2022-10-23T17:36:38.692Z,100207.31
2022-10-23T17:42:01.874Z,100216.19
2022-10-23T17:47:26.414Z,100219.94
2022-10-23T17:52:49.474Z,100216.47
2022-10-23T17:58:12.572Z,100212.59
2022-10-23T18:03:38.156Z,100199.59
2022-10-23T18:09:01.980Z,100174.06
2022-10-23T18:14:27.299Z,100180.28
2022-10-23T18:19:57.319Z,100189.06
2022-10-23T18:25:22.677Z,100186.22
2022-10-23T18:30:47.241Z,100176.22
2022-10-23T18:36:16.914Z,100170.84
2022-10-23T18:41:41.604Z,100165.69
2022-10-23T18:47:05.034Z,100164.44
2022-10-23T18:52:29.580Z,100159.94
2022-10-23T18:57:52.626Z,100172.09
2022-10-23T19:03:16.160Z,100201.59
2022-10-23T19:08:41.991Z,100208.06
2022-10-23T19:14:05.655Z,100228.78
2022-10-23T19:19:33.132Z,100260.56
2022-10-23T19:25:00.746Z,100280.75
2022-10-23T19:30:24.270Z,100301.41
2022-10-23T19:35:47.364Z,100317.78
2022-10-23T19:41:11.955Z,100325.97
2022-10-23T19:46:36.435Z,100310.50
2022-10-23T19:51:59.499Z,100274.16
2022-10-23T19:57:23.842Z,100195.59
2022-10-23T20:02:48.226Z,100214.63
2022-10-23T20:08:13.239Z,100228.09
2022-10-23T20:13:37.661Z,100239.53
2022-10-23T20:19:23.474Z,100252.97
2022-10-23T20:24:46.502Z,100269.50
2022-10-23T20:30:12.246Z,100257.78
2022-10-23T20:35:41.516Z,100253.41
2022-10-23T20:41:05.815Z,100263.66
2022-10-23T20:46:30.248Z,100275.97
2022-10-23T20:51:55.642Z,100280.53
2022-10-23T20:57:21.278Z,100289.03
2022-10-23T21:02:48.567Z,100285.78
2022-10-23T21:08:14.311Z,100279.00
2022-10-23T21:13:37.397Z,100286.63
2022-10-23T21:19:02.712Z,100241.88
2022-10-23T21:24:25.745Z,100280.06
2022-10-23T21:29:48.828Z,100271.78
2022-10-23T21:35:13.258Z,100258.78
2022-10-23T21:40:36.297Z,100255.22
2022-10-23T21:46:04.933Z,100253.75
2022-10-23T21:51:32.331Z,100250.97
2022-10-23T21:56:55.433Z,100245.97
2022-10-23T22:02:18.633Z,100253.66
2022-10-23T22:07:47.256Z,100242.94
2022-10-23T22:13:10.261Z,100239.94
2022-10-23T22:18:33.346Z,100246.34
2022-10-23T22:23:59.540Z,100240.16
2022-10-23T22:29:24.931Z,100237.13
2022-10-23T22:34:52.755Z,100237.53
2022-10-23T22:40:17.970Z,100239.59
2022-10-23T22:45:40.977Z,100242.25
2022-10-23T22:51:07.215Z,100252.53
2022-10-23T22:56:33.367Z,100243.25
2022-10-23T23:01:56.437Z,100235.44
2022-10-23T23:07:19.538Z,100237.31
2022-10-23T23:12:43.893Z,100220.44
2022-10-23T23:18:06.925Z,100215.94
2022-10-23T23:23:30.047Z,100212.00
2022-10-23T23:28:55.316Z,100204.66
2022-10-23T23:34:18.326Z,100201.66
2022-10-23T23:39:41.359Z,100201.28
2022-10-23T23:45:14.234Z,100200.72
2022-10-23T23:50:37.937Z,100199.41
2022-10-23T23:56:00.936Z,100194.88
